Citation — WDE7253 — position and weather

sailwx.info

Track history (hours):
 
Tides and Currents Weather Stations Pressure Air Temp Water Temp Dewpoint Dewpoint Depression Visibility Wind Speed Wind Dir Waves Ship Positions

Citation

Owner: Turn Services, LLC, New Orleans, LA. More information available from US FCC via Universal Licensing System and Coast Guard Vessel Documentation Center.

Last reported at 2018-Jul-22 13:48 UTC. Time now 2018-Jul-22 16:41 UTC.
Position N 30°03' W 090°32'.

Length 37 m.

Type: Other ship. MMSI: 367390960.

Date/timePositionNaut miles runAvg speedWind from/ knotsBaromVisibWave heightAir tempDewpointWater temp
2018-Jul-22 13:48N 30°03' W 090°32'3 8.6
2018-Jul-22 13:30N 30°03' W 090°35'4 7.1
2018-Jul-22 12:58N 30°03' W 090°39'4 8.2
2018-Jul-22 12:29N 30°01' W 090°43'2 3.3
2018-Jul-22 11:51N 30°01' W 090°45'0 0.2
2018-Jul-22 11:30N 30°01' W 090°45'0 0.3
2018-Jul-22 11:00N 30°01' W 090°45'1 2.4
2018-Jul-22 10:30N 30°01' W 090°44'0 0.0
2018-Jul-22 09:58N 30°01' W 090°44'0 0.0
2018-Jul-22 09:27N 30°01' W 090°44'0 0.0
2018-Jul-22 09:00N 30°01' W 090°44'0 0.0
2018-Jul-22 08:30N 30°01' W 090°44'1 2.3
2018-Jul-22 07:55N 30°01' W 090°45'0 0.0
2018-Jul-22 07:30N 30°01' W 090°45'1 1.4
2018-Jul-22 06:50N 30°01' W 090°46'2 6.7
2018-Jul-22 06:30N 29°59' W 090°48'2 4.7
2018-Jul-22 06:00N 30°01' W 090°50'3 6.2
2018-Jul-22 05:30N 30°04' W 090°52'3 5.8
2018-Jul-22 04:59N 30°06' W 090°55'3 5.3
2018-Jul-22 04:28N 30°08' W 090°57'2 4.5
2018-Jul-22 04:00N 30°07' W 090°58'3 5.8
2018-Jul-22 03:29N 30°07' W 091°02'3 4.2
2018-Jul-22 02:50N 30°10' W 091°00'17 1.0
2018-Jul-21 09:24N 30°15' W 091°19'5 2.8
2018-Jul-21 07:34N 30°10' W 091°20'0 3.4
2018-Jul-21 07:26N 30°10' W 091°20'1 3.1
2018-Jul-21 07:00N 30°08' W 091°19'0 0.1
2018-Jul-21 06:24N 30°08' W 091°20'0 0.3
2018-Jul-21 06:00N 30°08' W 091°19'1 1.1
2018-Jul-21 05:23N 30°08' W 091°19'1 1.6
2018-Jul-21 05:00N 30°07' W 091°19'1 1.0
2018-Jul-21 04:27N 30°07' W 091°19'30 1.6
2018-Jul-20 10:12N 29°46' W 091°44'5 4.1
2018-Jul-20 08:59N 29°48' W 091°49'4 3.6
2018-Jul-20 07:58N 29°51' W 091°52'2 4.1
2018-Jul-20 07:30N 29°51' W 091°54'2 4.0
2018-Jul-20 07:00N 29°51' W 091°56'2 3.9
2018-Jul-20 06:30N 29°50' W 091°59'2 3.9
2018-Jul-20 06:00N 29°50' W 092°01'2 3.9
2018-Jul-20 05:30N 29°49' W 092°03'2 3.9
2018-Jul-20 05:00N 29°48' W 092°05'2 4.1
2018-Jul-20 04:30N 29°47' W 092°07'2 4.4
2018-Jul-20 04:00N 29°47' W 092°10'2 4.6
2018-Jul-20 03:29N 29°47' W 092°12'2 4.0
2018-Jul-20 03:00N 29°48' W 092°14'2 4.4
2018-Jul-20 02:30N 29°49' W 092°17'2 4.3
2018-Jul-20 02:00N 29°50' W 092°18'2 4.6
2018-Jul-20 01:30N 29°51' W 092°21'2 4.3
2018-Jul-20 01:00N 29°52' W 092°23'2 3.6
2018-Jul-20 00:30N 29°53' W 092°25'33 3.4
2018-Jul-19 14:34N 29°56' W 093°03'1 3.1
2018-Jul-19 14:22N 29°56' W 093°04'2 2.5
2018-Jul-19 13:30N 29°56' W 093°06'1 2.9
2018-Jul-19 13:00N 29°56' W 093°08'2 3.6
2018-Jul-19 12:30N 29°56' W 093°10'2 3.4
2018-Jul-19 12:00N 29°58' W 093°11'2 3.4
2018-Jul-19 11:30N 29°59' W 093°12'2 3.5
2018-Jul-19 11:00N 30°00' W 093°14'2 3.3
2018-Jul-19 10:30N 30°02' W 093°15'2 3.1
2018-Jul-19 10:00N 30°03' W 093°16'1 2.9
2018-Jul-19 09:30N 30°04' W 093°16'1 3.0
2018-Jul-19 09:00N 30°05' W 093°17'0 0.7
2018-Jul-19 08:30N 30°05' W 093°18'0 0.4
2018-Jul-19 08:00N 30°06' W 093°18'0 0.6
2018-Jul-19 07:30N 30°06' W 093°18'1 1.2
2018-Jul-19 07:00N 30°06' W 093°19'0 0.2
2018-Jul-19 06:30N 30°06' W 093°19'0 0.1
2018-Jul-19 06:00N 30°06' W 093°19'0 0.0
2018-Jul-19 05:30N 30°06' W 093°19'0 0.0
2018-Jul-19 05:00N 30°06' W 093°19'0 0.0
2018-Jul-19 04:30N 30°06' W 093°19'0 0.0
2018-Jul-19 04:00N 30°06' W 093°19'0 0.0
2018-Jul-19 03:30N 30°06' W 093°19'0 0.0
2018-Jul-19 03:00N 30°06' W 093°19'0 0.0
2018-Jul-19 02:30N 30°06' W 093°19'0 0.0
2018-Jul-19 02:00N 30°06' W 093°19'0 0.0
2018-Jul-19 01:29N 30°06' W 093°19'0 0.0
2018-Jul-19 01:00N 30°06' W 093°19'0 0.0
2018-Jul-19 00:30N 30°06' W 093°19'0 0.0
2018-Jul-19 00:00N 30°06' W 093°19'0 0.0
2018-Jul-18 23:30N 30°06' W 093°19'0 0.0
2018-Jul-18 23:00N 30°06' W 093°19'0 0.0
2018-Jul-18 22:30N 30°06' W 093°19'0 0.0
2018-Jul-18 22:00N 30°06' W 093°19'0 0.0
2018-Jul-18 21:30N 30°06' W 093°19'0 0.0
2018-Jul-18 21:00N 30°06' W 093°19'0 0.0
2018-Jul-18 20:30N 30°06' W 093°19'0 0.0
2018-Jul-18 19:53N 30°06' W 093°19'0 0.0
2018-Jul-18 19:30N 30°06' W 093°19'0 0.0
2018-Jul-18 19:00N 30°06' W 093°19'0 0.0
2018-Jul-18 18:30N 30°06' W 093°19'0 0.0
2018-Jul-18 18:00N 30°06' W 093°19'0 0.0
2018-Jul-18 17:30N 30°06' W 093°19'0 0.0
2018-Jul-18 17:00N 30°06' W 093°19'0 0.0
2018-Jul-18 16:30N 30°06' W 093°19'0 0.0
2018-Jul-18 16:00N 30°06' W 093°19'0 0.0
2018-Jul-18 15:30N 30°06' W 093°19'0 0.0
2018-Jul-18 15:00N 30°06' W 093°19'0 0.0
2018-Jul-18 14:30N 30°06' W 093°19'0 0.0
2018-Jul-18 13:30N 30°06' W 093°19'0 0.0
2018-Jul-18 13:00N 30°06' W 093°19'0 0.0
2018-Jul-18 12:30N 30°06' W 093°19'0 0.0
2018-Jul-18 12:00N 30°06' W 093°19'0 0.0
2018-Jul-18 11:30N 30°06' W 093°19'0 0.0
2018-Jul-18 10:30N 30°06' W 093°19'0 0.0
2018-Jul-18 10:00N 30°06' W 093°19'0 0.0
2018-Jul-18 09:30N 30°06' W 093°19'0 0.0
2018-Jul-18 09:00N 30°06' W 093°19'0 0.0
2018-Jul-18 08:30N 30°06' W 093°19'0 0.0
2018-Jul-18 08:00N 30°06' W 093°19'0 0.0
2018-Jul-18 07:30N 30°06' W 093°19'0 0.0
2018-Jul-18 07:00N 30°06' W 093°19'0 0.0
2018-Jul-18 06:30N 30°06' W 093°19'0 0.0
2018-Jul-18 06:00N 30°06' W 093°19'0 0.0
2018-Jul-18 05:30N 30°06' W 093°19'0 0.0
2018-Jul-18 05:00N 30°06' W 093°19'0 0.0
2018-Jul-18 04:30N 30°06' W 093°19'0 0.0
2018-Jul-18 04:00N 30°06' W 093°19'0 0.0
2018-Jul-18 03:30N 30°06' W 093°19'0 0.0
2018-Jul-18 03:00N 30°06' W 093°19'0 0.0
2018-Jul-18 02:30N 30°06' W 093°19'0 0.0
2018-Jul-18 02:00N 30°06' W 093°19'0 0.0
2018-Jul-18 01:30N 30°06' W 093°19'0 0.0
2018-Jul-18 01:00N 30°06' W 093°19'0 0.0
2018-Jul-18 00:30N 30°06' W 093°19'0 0.0
2018-Jul-18 00:00N 30°06' W 093°19'0 0.0
2018-Jul-17 23:30N 30°06' W 093°19'0 0.0
2018-Jul-17 23:00N 30°06' W 093°19'0 0.0
2018-Jul-17 22:30N 30°06' W 093°19'0 0.0
2018-Jul-17 21:58N 30°06' W 093°19'0 0.0
2018-Jul-17 21:30N 30°06' W 093°19'0 0.0
2018-Jul-17 21:00N 30°06' W 093°19'0 0.0
2018-Jul-17 20:30N 30°06' W 093°19'0 0.1
2018-Jul-17 20:00N 30°06' W 093°19'0 0.1
2018-Jul-17 19:30N 30°06' W 093°19'0 0.0
2018-Jul-17 19:00N 30°06' W 093°19'0 0.1
2018-Jul-17 18:30N 30°06' W 093°19'0 0.0
2018-Jul-17 18:00N 30°06' W 093°19'0 0.0
2018-Jul-17 17:30N 30°06' W 093°19'0 0.0
2018-Jul-17 17:00N 30°06' W 093°19'0 0.0
2018-Jul-17 16:30N 30°06' W 093°19'0 0.0
2018-Jul-17 16:00N 30°06' W 093°19'0 0.0
2018-Jul-17 15:30N 30°06' W 093°19'0 0.0
2018-Jul-17 15:00N 30°06' W 093°19'0 0.0
2018-Jul-17 14:30N 30°06' W 093°19'0 0.0
2018-Jul-17 14:00N 30°06' W 093°19'0 0.0
2018-Jul-17 13:30N 30°06' W 093°19'0 0.1
2018-Jul-17 13:00N 30°06' W 093°19'0 0.0
2018-Jul-17 12:30N 30°06' W 093°19'0 0.0
2018-Jul-17 12:00N 30°06' W 093°19'0 0.0
2018-Jul-17 11:30N 30°06' W 093°19'0 0.0
2018-Jul-17 11:00N 30°06' W 093°19'0 0.0
2018-Jul-17 10:30N 30°06' W 093°19'0 0.0
2018-Jul-17 10:00N 30°06' W 093°19'0 0.0
2018-Jul-17 09:30N 30°06' W 093°19'0 0.0
2018-Jul-17 09:00N 30°06' W 093°19'0 0.0
2018-Jul-17 08:30N 30°06' W 093°19'0 0.0
2018-Jul-17 08:00N 30°06' W 093°19'0 0.0
2018-Jul-17 07:30N 30°06' W 093°19'0 0.0
2018-Jul-17 07:00N 30°06' W 093°19'0 0.0
2018-Jul-17 06:29N 30°06' W 093°19'0 0.0
2018-Jul-17 05:59N 30°06' W 093°19'0 0.0
2018-Jul-17 05:29N 30°06' W 093°19'0 0.0
2018-Jul-17 05:00N 30°06' W 093°19'0 0.0
2018-Jul-17 04:26N 30°06' W 093°19'0 0.0
2018-Jul-17 03:58N 30°06' W 093°19'0 0.0
2018-Jul-17 03:29N 30°06' W 093°19'0 0.0
2018-Jul-17 03:00N 30°06' W 093°19'0 0.0
2018-Jul-17 02:30N 30°06' W 093°19'0 0.0
2018-Jul-17 02:00N 30°06' W 093°19'1 1.7
2018-Jul-17 01:30N 30°05' W 093°20'2 3.1
2018-Jul-17 01:00N 30°04' W 093°21'1 2.6
2018-Jul-17 00:30N 30°04' W 093°22'2 2.4
2018-Jul-16 23:30N 30°04' W 093°25'1 1.5
2018-Jul-16 23:00N 30°04' W 093°26'0 0.1
2018-Jul-16 22:30N 30°04' W 093°26'0 0.0
2018-Jul-16 22:00N 30°04' W 093°26'0 0.0
2018-Jul-16 21:30N 30°04' W 093°26'0 0.0
2018-Jul-16 21:00N 30°04' W 093°26'0 0.0
2018-Jul-16 20:30N 30°04' W 093°26'0 0.0
2018-Jul-16 20:00N 30°04' W 093°26'0 0.0
2018-Jul-16 19:30N 30°04' W 093°26'0 0.0
2018-Jul-16 19:00N 30°04' W 093°26'0 0.0
2018-Jul-16 18:30N 30°04' W 093°26'0 0.0
2018-Jul-16 18:00N 30°04' W 093°26'0 0.0
2018-Jul-16 17:30N 30°04' W 093°26'0 0.4
2018-Jul-16 16:59N 30°04' W 093°26'0 0.0
2018-Jul-16 16:30N 30°04' W 093°26'0 0.0
2018-Jul-16 16:00N 30°04' W 093°26'0 0.1
2018-Jul-16 15:30N 30°04' W 093°26'0 0.0
2018-Jul-16 15:00N 30°04' W 093°26'0 0.0
2018-Jul-16 14:30N 30°04' W 093°26'0 0.0
2018-Jul-16 14:00N 30°04' W 093°26'0 0.5
2018-Jul-16 13:30N 30°04' W 093°26'1 1.1
2018-Jul-16 13:00N 30°04' W 093°27'0 0.6
2018-Jul-16 12:30N 30°04' W 093°27'1 1.4
2018-Jul-16 12:00N 30°04' W 093°28'0 0.1
2018-Jul-16 11:30N 30°04' W 093°28'0 0.0
2018-Jul-16 11:00N 30°04' W 093°28'0 0.0
2018-Jul-16 10:31N 30°04' W 093°28'0 0.0
2018-Jul-16 10:01N 30°04' W 093°28'0 0.0
2018-Jul-16 09:30N 30°04' W 093°28'0 0.0
2018-Jul-16 09:00N 30°04' W 093°28'0 0.0
2018-Jul-16 08:30N 30°04' W 093°28'0 0.0
2018-Jul-16 08:00N 30°04' W 093°28'0 0.0
2018-Jul-16 07:30N 30°04' W 093°28'0 0.0
2018-Jul-16 07:00N 30°04' W 093°28'0 0.0
2018-Jul-16 06:30N 30°04' W 093°28'0 0.0
2018-Jul-16 06:00N 30°04' W 093°28'0 0.0
2018-Jul-16 05:30N 30°04' W 093°28'0 0.0
2018-Jul-16 05:00N 30°04' W 093°28'0 0.0
2018-Jul-16 04:29N 30°04' W 093°28'0 0.1
2018-Jul-16 04:00N 30°04' W 093°28'0 0.0
2018-Jul-16 03:30N 30°04' W 093°28'0 0.1
2018-Jul-16 03:00N 30°04' W 093°28'0 0.0
2018-Jul-16 02:30N 30°04' W 093°28'0 0.0
2018-Jul-16 02:00N 30°04' W 093°28'0 0.0
2018-Jul-16 01:30N 30°04' W 093°28'0 0.0
2018-Jul-16 01:00N 30°04' W 093°28'0 0.0
2018-Jul-16 00:30N 30°04' W 093°28'0 0.1
2018-Jul-16 00:00N 30°04' W 093°28'0 0.2
2018-Jul-15 23:30N 30°04' W 093°28'0 0.6
2018-Jul-15 23:00N 30°04' W 093°29'0 0.4
2018-Jul-15 22:30N 30°04' W 093°29'0 0.3
2018-Jul-15 22:00N 30°04' W 093°29'1 2.1
2018-Jul-15 21:30N 30°04' W 093°30'2 4.2
2018-Jul-15 21:00N 30°04' W 093°33'0 0.4
2018-Jul-15 20:30N 30°04' W 093°33'0 0.0
2018-Jul-15 20:00N 30°04' W 093°33'0 0.0
2018-Jul-15 19:30N 30°04' W 093°33'0 0.4
2018-Jul-15 19:00N 30°04' W 093°33'2 3.3
2018-Jul-15 18:30N 30°04' W 093°35'0 0.9
2018-Jul-15 17:59N 30°04' W 093°36'1 1.9
2018-Jul-15 17:30N 30°04' W 093°37'1 2.3
2018-Jul-15 17:00N 30°04' W 093°38'0 0.3
2018-Jul-15 16:30N 30°04' W 093°38'0 0.0
2018-Jul-15 16:00N 30°04' W 093°38'0 0.0
2018-Jul-15 15:30N 30°04' W 093°38'0 0.1
2018-Jul-15 15:00N 30°04' W 093°38'0 0.0
2018-Jul-15 14:30N 30°04' W 093°38'0 0.1
2018-Jul-15 14:00N 30°04' W 093°38'0 0.0
2018-Jul-15 13:29N 30°04' W 093°38'0 0.0
2018-Jul-15 13:00N 30°04' W 093°38'0 0.1
2018-Jul-15 12:30N 30°04' W 093°38'0 0.2
2018-Jul-15 12:00N 30°04' W 093°38'0 0.1
2018-Jul-15 11:30N 30°04' W 093°38'0 0.1
2018-Jul-15 10:59N 30°04' W 093°38'0 0.0
2018-Jul-15 10:30N 30°04' W 093°38'0 0.0
2018-Jul-15 10:00N 30°04' W 093°38'0 0.0
2018-Jul-15 09:30N 30°04' W 093°38'0 0.1
2018-Jul-15 09:00N 30°04' W 093°38'1 1.7
2018-Jul-15 08:30N 30°04' W 093°39'2 3.3
2018-Jul-15 08:00N 30°04' W 093°41'2 4.3
2018-Jul-15 07:30N 30°03' W 093°44'2 4.4
2018-Jul-15 07:00N 30°01' W 093°45'2 4.7
2018-Jul-15 06:29N 29°59' W 093°47'2 4.8
2018-Jul-15 06:00N 29°59' W 093°50'2 4.4
2018-Jul-15 05:30N 29°57' W 093°52'2 4.3
2018-Jul-15 05:00N 29°55' W 093°53'2 3.7
2018-Jul-15 04:30N 29°54' W 093°54'2 4.0
2018-Jul-15 04:00N 29°52' W 093°56'2 3.3
2018-Jul-15 03:30N 29°51' W 093°57'2 3.9
2018-Jul-15 03:00N 29°49' W 093°58'2 4.6
2018-Jul-15 02:30N 29°48' W 094°00'3 5.1
2018-Jul-15 02:00N 29°46' W 094°02'2 4.9
2018-Jul-15 01:30N 29°45' W 094°05'2 4.8
2018-Jul-15 01:00N 29°43' W 094°07'2 4.6
2018-Jul-15 00:30N 29°42' W 094°09'2 4.3
2018-Jul-15 00:00N 29°41' W 094°11'2 4.4
2018-Jul-14 23:30N 29°40' W 094°13'2 4.4
2018-Jul-14 23:00N 29°39' W 094°16'2 4.4
2018-Jul-14 22:30N 29°38' W 094°18'2 4.4
2018-Jul-14 22:00N 29°37' W 094°20'2 4.5
2018-Jul-14 21:30N 29°36' W 094°22'2 3.5
2018-Jul-14 21:00N 29°36' W 094°24'2 3.6
2018-Jul-14 20:30N 29°34' W 094°25'20 3.9
2018-Jul-14 15:25N 29°24' W 094°45'2 4.6
2018-Jul-14 15:00N 29°23' W 094°46'3 3.5
2018-Jul-14 14:00N 29°25' W 094°50'2 4.8
2018-Jul-14 13:30N 29°27' W 094°51'3 4.8
2018-Jul-14 12:54N 29°30' W 094°52'2 4.9
2018-Jul-14 12:25N 29°32' W 094°54'2 4.5
2018-Jul-14 12:00N 29°33' W 094°55'3 5.1
2018-Jul-14 11:30N 29°35' W 094°56'3 5.2
2018-Jul-14 11:00N 29°38' W 094°58'3 5.5
2018-Jul-14 10:30N 29°40' W 094°59'3 5.5
2018-Jul-14 10:00N 29°42' W 095°01'3 5.6
2018-Jul-14 09:30N 29°44' W 095°03'3 1.6
2018-Jul-14 07:41N 29°46' W 095°06'0 0.1
2018-Jul-14 07:29N 29°46' W 095°06'0 0.2
2018-Jul-14 07:00N 29°46' W 095°06'1 0.2
2018-Jul-14 04:03N 29°45' W 095°06'0 6.4
2018-Jul-14 04:00N 29°46' W 095°05'0 0.5
2018-Jul-14 03:30N 29°46' W 095°05'1 1.3
2018-Jul-14 02:57N 29°46' W 095°05'3 6.2
2018-Jul-14 02:29N 29°44' W 095°02'3 5.6
2018-Jul-14 02:00N 29°42' W 094°60'3 6.3
2018-Jul-14 01:30N 29°39' W 094°58'3 6.9
2018-Jul-14 01:00N 29°36' W 094°57'3 7.0
2018-Jul-14 00:30N 29°33' W 094°55'3 6.1
2018-Jul-13 23:58N 29°30' W 094°52'6 6.8
2018-Jul-13 23:05N 29°25' W 094°50'1 6.7
2018-Jul-13 23:00N 29°24' W 094°49'3 5.5
2018-Jul-13 22:30N 29°22' W 094°47'2 4.3
2018-Jul-13 22:00N 29°24' W 094°45'3 5.4
2018-Jul-13 21:30N 29°25' W 094°43'15 5.7
2018-Jul-13 18:54N 29°33' W 094°28'3 5.7
2018-Jul-13 18:23N 29°34' W 094°25'2 5.2
2018-Jul-13 18:00N 29°36' W 094°24'3 5.5
2018-Jul-13 17:30N 29°37' W 094°21'3 5.9
2018-Jul-13 17:00N 29°38' W 094°18'3 5.9
2018-Jul-13 16:28N 29°40' W 094°15'3 5.7
2018-Jul-13 16:00N 29°41' W 094°12'3 5.5
2018-Jul-13 15:30N 29°42' W 094°09'2 5.0
2018-Jul-13 15:00N 29°43' W 094°07'6 6.0
2018-Jul-13 14:00N 29°47' W 094°02'3 6.1
2018-Jul-13 13:30N 29°49' W 093°59'2 4.2
2018-Jul-13 13:00N 29°50' W 093°57'2 4.5
2018-Jul-13 12:30N 29°52' W 093°56'3 4.9
2018-Jul-13 12:00N 29°54' W 093°54'2 4.0
2018-Jul-13 11:30N 29°56' W 093°52'0 0.5
2018-Jul-13 11:00N 29°56' W 093°52'0 0.0
2018-Jul-13 10:30N 29°56' W 093°52'1 1.2
2018-Jul-13 10:00N 29°57' W 093°52'3 5.3
2018-Jul-13 09:30N 29°59' W 093°50'3 5.8
2018-Jul-13 09:00N 29°60' W 093°47'3 5.0
2018-Jul-13 08:29N 30°01' W 093°45'2 5.1
2018-Jul-13 08:00N 30°03' W 093°43'3 5.3
2018-Jul-13 07:30N 30°04' W 093°40'3 5.3
2018-Jul-13 07:00N 30°04' W 093°37'2 4.5
2018-Jul-13 06:30N 30°04' W 093°34'2 4.4
2018-Jul-13 06:00N 30°04' W 093°32'2 4.0
2018-Jul-13 05:30N 30°04' W 093°29'2 4.1
2018-Jul-13 05:00N 30°04' W 093°27'2 4.2
2018-Jul-13 04:30N 30°04' W 093°25'2 3.9
2018-Jul-13 04:00N 30°04' W 093°22'1 1.5
2018-Jul-13 03:30N 30°04' W 093°21'1 1.4
2018-Jul-13 03:00N 30°04' W 093°21'1 1.7
2018-Jul-13 02:30N 30°05' W 093°20'1 2.6
2018-Jul-13 02:00N 30°06' W 093°19'2 3.0
2018-Jul-13 01:30N 30°05' W 093°18'0 0.5
2018-Jul-13 01:00N 30°05' W 093°17'0 0.0
2018-Jul-13 00:30N 30°05' W 093°17'1 1.5
2018-Jul-13 00:00N 30°05' W 093°17'0 0.0
2018-Jul-12 23:30N 30°05' W 093°17'1 1.2
2018-Jul-12 23:00N 30°04' W 093°16'1 1.6
2018-Jul-12 22:30N 30°03' W 093°16'0 0.2
2018-Jul-12 22:00N 30°04' W 093°16'0 0.0
2018-Jul-12 21:30N 30°04' W 093°16'0 0.0
2018-Jul-12 20:59N 30°04' W 093°16'0 0.0
2018-Jul-12 20:30N 30°04' W 093°16'0 0.0
2018-Jul-12 20:00N 30°04' W 093°16'0 0.0
2018-Jul-12 19:30N 30°04' W 093°16'0 0.0
2018-Jul-12 19:00N 30°04' W 093°16'0 0.0
2018-Jul-12 18:30N 30°04' W 093°16'0 0.0
2018-Jul-12 18:00N 30°04' W 093°16'0 0.0
2018-Jul-12 17:30N 30°04' W 093°16'0 0.0
2018-Jul-12 17:00N 30°04' W 093°16'0 0.0
2018-Jul-12 16:30N 30°04' W 093°16'0 0.0
2018-Jul-12 16:00N 30°04' W 093°16'0 0.0
2018-Jul-12 15:30N 30°04' W 093°16'0 0.0
2018-Jul-12 15:00N 30°04' W 093°16'0 0.0
2018-Jul-12 14:30N 30°04' W 093°16'0 0.0
2018-Jul-12 14:00N 30°04' W 093°16'  
Track history (hours):
 
Tides and Currents Weather Stations Pressure Air Temp Water Temp Dewpoint Dewpoint Depression Visibility Wind Speed Wind Dir Waves Ship Positions

Citation

Owner: Turn Services, LLC, New Orleans, LA. More information available from US FCC via Universal Licensing System and Coast Guard Vessel Documentation Center.

Last reported at 2018-Jul-22 13:48 UTC. Time now 2018-Jul-22 16:41 UTC.
Position N 30°03' W 090°32'.

Length 37 m.

Type: Other ship. MMSI: 367390960.

Date/timePositionNaut miles runAvg speedWind from/ knotsBaromVisibWave heightAir tempDewpointWater temp
2018-Jul-22 13:48N 30°03' W 090°32'3 8.6
2018-Jul-22 13:30N 30°03' W 090°35'4 7.1
2018-Jul-22 12:58N 30°03' W 090°39'4 8.2
2018-Jul-22 12:29N 30°01' W 090°43'2 3.3
2018-Jul-22 11:51N 30°01' W 090°45'0 0.2
2018-Jul-22 11:30N 30°01' W 090°45'0 0.3
2018-Jul-22 11:00N 30°01' W 090°45'1 2.4
2018-Jul-22 10:30N 30°01' W 090°44'0 0.0
2018-Jul-22 09:58N 30°01' W 090°44'0 0.0
2018-Jul-22 09:27N 30°01' W 090°44'0 0.0
2018-Jul-22 09:00N 30°01' W 090°44'0 0.0
2018-Jul-22 08:30N 30°01' W 090°44'1 2.3
2018-Jul-22 07:55N 30°01' W 090°45'0 0.0
2018-Jul-22 07:30N 30°01' W 090°45'1 1.4
2018-Jul-22 06:50N 30°01' W 090°46'2 6.7
2018-Jul-22 06:30N 29°59' W 090°48'2 4.7
2018-Jul-22 06:00N 30°01' W 090°50'3 6.2
2018-Jul-22 05:30N 30°04' W 090°52'3 5.8
2018-Jul-22 04:59N 30°06' W 090°55'3 5.3
2018-Jul-22 04:28N 30°08' W 090°57'2 4.5
2018-Jul-22 04:00N 30°07' W 090°58'3 5.8
2018-Jul-22 03:29N 30°07' W 091°02'3 4.2
2018-Jul-22 02:50N 30°10' W 091°00'17 1.0
2018-Jul-21 09:24N 30°15' W 091°19'5 2.8
2018-Jul-21 07:34N 30°10' W 091°20'0 3.4
2018-Jul-21 07:26N 30°10' W 091°20'1 3.1
2018-Jul-21 07:00N 30°08' W 091°19'0 0.1
2018-Jul-21 06:24N 30°08' W 091°20'0 0.3
2018-Jul-21 06:00N 30°08' W 091°19'1 1.1
2018-Jul-21 05:23N 30°08' W 091°19'1 1.6
2018-Jul-21 05:00N 30°07' W 091°19'1 1.0
2018-Jul-21 04:27N 30°07' W 091°19'30 1.6
2018-Jul-20 10:12N 29°46' W 091°44'5 4.1
2018-Jul-20 08:59N 29°48' W 091°49'4 3.6
2018-Jul-20 07:58N 29°51' W 091°52'2 4.1
2018-Jul-20 07:30N 29°51' W 091°54'2 4.0
2018-Jul-20 07:00N 29°51' W 091°56'2 3.9
2018-Jul-20 06:30N 29°50' W 091°59'2 3.9
2018-Jul-20 06:00N 29°50' W 092°01'2 3.9
2018-Jul-20 05:30N 29°49' W 092°03'2 3.9
2018-Jul-20 05:00N 29°48' W 092°05'2 4.1
2018-Jul-20 04:30N 29°47' W 092°07'2 4.4
2018-Jul-20 04:00N 29°47' W 092°10'2 4.6
2018-Jul-20 03:29N 29°47' W 092°12'2 4.0
2018-Jul-20 03:00N 29°48' W 092°14'2 4.4
2018-Jul-20 02:30N 29°49' W 092°17'2 4.3
2018-Jul-20 02:00N 29°50' W 092°18'2 4.6
2018-Jul-20 01:30N 29°51' W 092°21'2 4.3
2018-Jul-20 01:00N 29°52' W 092°23'2 3.6
2018-Jul-20 00:30N 29°53' W 092°25'33 3.4
2018-Jul-19 14:34N 29°56' W 093°03'1 3.1
2018-Jul-19 14:22N 29°56' W 093°04'2 2.5
2018-Jul-19 13:30N 29°56' W 093°06'1 2.9
2018-Jul-19 13:00N 29°56' W 093°08'2 3.6
2018-Jul-19 12:30N 29°56' W 093°10'2 3.4
2018-Jul-19 12:00N 29°58' W 093°11'2 3.4
2018-Jul-19 11:30N 29°59' W 093°12'2 3.5
2018-Jul-19 11:00N 30°00' W 093°14'2 3.3
2018-Jul-19 10:30N 30°02' W 093°15'2 3.1
2018-Jul-19 10:00N 30°03' W 093°16'1 2.9
2018-Jul-19 09:30N 30°04' W 093°16'1 3.0
2018-Jul-19 09:00N 30°05' W 093°17'0 0.7
2018-Jul-19 08:30N 30°05' W 093°18'0 0.4
2018-Jul-19 08:00N 30°06' W 093°18'0 0.6
2018-Jul-19 07:30N 30°06' W 093°18'1 1.2
2018-Jul-19 07:00N 30°06' W 093°19'0 0.2
2018-Jul-19 06:30N 30°06' W 093°19'0 0.1
2018-Jul-19 06:00N 30°06' W 093°19'0 0.0
2018-Jul-19 05:30N 30°06' W 093°19'0 0.0
2018-Jul-19 05:00N 30°06' W 093°19'0 0.0
2018-Jul-19 04:30N 30°06' W 093°19'0 0.0
2018-Jul-19 04:00N 30°06' W 093°19'0 0.0
2018-Jul-19 03:30N 30°06' W 093°19'0 0.0
2018-Jul-19 03:00N 30°06' W 093°19'0 0.0
2018-Jul-19 02:30N 30°06' W 093°19'0 0.0
2018-Jul-19 02:00N 30°06' W 093°19'0 0.0
2018-Jul-19 01:29N 30°06' W 093°19'0 0.0
2018-Jul-19 01:00N 30°06' W 093°19'0 0.0
2018-Jul-19 00:30N 30°06' W 093°19'0 0.0
2018-Jul-19 00:00N 30°06' W 093°19'0 0.0
2018-Jul-18 23:30N 30°06' W 093°19'0 0.0
2018-Jul-18 23:00N 30°06' W 093°19'0 0.0
2018-Jul-18 22:30N 30°06' W 093°19'0 0.0
2018-Jul-18 22:00N 30°06' W 093°19'0 0.0
2018-Jul-18 21:30N 30°06' W 093°19'0 0.0
2018-Jul-18 21:00N 30°06' W 093°19'0 0.0
2018-Jul-18 20:30N 30°06' W 093°19'0 0.0
2018-Jul-18 19:53N 30°06' W 093°19'0 0.0
2018-Jul-18 19:30N 30°06' W 093°19'0 0.0
2018-Jul-18 19:00N 30°06' W 093°19'0 0.0
2018-Jul-18 18:30N 30°06' W 093°19'0 0.0
2018-Jul-18 18:00N 30°06' W 093°19'0 0.0
2018-Jul-18 17:30N 30°06' W 093°19'0 0.0
2018-Jul-18 17:00N 30°06' W 093°19'0 0.0
2018-Jul-18 16:30N 30°06' W 093°19'0 0.0
2018-Jul-18 16:00N 30°06' W 093°19'0 0.0
2018-Jul-18 15:30N 30°06' W 093°19'0 0.0
2018-Jul-18 15:00N 30°06' W 093°19'0 0.0
2018-Jul-18 14:30N 30°06' W 093°19'0 0.0
2018-Jul-18 13:30N 30°06' W 093°19'0 0.0
2018-Jul-18 13:00N 30°06' W 093°19'0 0.0
2018-Jul-18 12:30N 30°06' W 093°19'0 0.0
2018-Jul-18 12:00N 30°06' W 093°19'0 0.0
2018-Jul-18 11:30N 30°06' W 093°19'0 0.0
2018-Jul-18 10:30N 30°06' W 093°19'0 0.0
2018-Jul-18 10:00N 30°06' W 093°19'0 0.0
2018-Jul-18 09:30N 30°06' W 093°19'0 0.0
2018-Jul-18 09:00N 30°06' W 093°19'0 0.0
2018-Jul-18 08:30N 30°06' W 093°19'0 0.0
2018-Jul-18 08:00N 30°06' W 093°19'0 0.0
2018-Jul-18 07:30N 30°06' W 093°19'0 0.0
2018-Jul-18 07:00N 30°06' W 093°19'0 0.0
2018-Jul-18 06:30N 30°06' W 093°19'0 0.0
2018-Jul-18 06:00N 30°06' W 093°19'0 0.0
2018-Jul-18 05:30N 30°06' W 093°19'0 0.0
2018-Jul-18 05:00N 30°06' W 093°19'0 0.0
2018-Jul-18 04:30N 30°06' W 093°19'0 0.0
2018-Jul-18 04:00N 30°06' W 093°19'0 0.0
2018-Jul-18 03:30N 30°06' W 093°19'0 0.0
2018-Jul-18 03:00N 30°06' W 093°19'0 0.0
2018-Jul-18 02:30N 30°06' W 093°19'0 0.0
2018-Jul-18 02:00N 30°06' W 093°19'0 0.0
2018-Jul-18 01:30N 30°06' W 093°19'0 0.0
2018-Jul-18 01:00N 30°06' W 093°19'0 0.0
2018-Jul-18 00:30N 30°06' W 093°19'0 0.0
2018-Jul-18 00:00N 30°06' W 093°19'0 0.0
2018-Jul-17 23:30N 30°06' W 093°19'0 0.0
2018-Jul-17 23:00N 30°06' W 093°19'0 0.0
2018-Jul-17 22:30N 30°06' W 093°19'0 0.0
2018-Jul-17 21:58N 30°06' W 093°19'0 0.0
2018-Jul-17 21:30N 30°06' W 093°19'0 0.0
2018-Jul-17 21:00N 30°06' W 093°19'0 0.0
2018-Jul-17 20:30N 30°06' W 093°19'0 0.1
2018-Jul-17 20:00N 30°06' W 093°19'0 0.1
2018-Jul-17 19:30N 30°06' W 093°19'0 0.0
2018-Jul-17 19:00N 30°06' W 093°19'0 0.1
2018-Jul-17 18:30N 30°06' W 093°19'0 0.0
2018-Jul-17 18:00N 30°06' W 093°19'0 0.0
2018-Jul-17 17:30N 30°06' W 093°19'0 0.0
2018-Jul-17 17:00N 30°06' W 093°19'0 0.0
2018-Jul-17 16:30N 30°06' W 093°19'0 0.0
2018-Jul-17 16:00N 30°06' W 093°19'0 0.0
2018-Jul-17 15:30N 30°06' W 093°19'0 0.0
2018-Jul-17 15:00N 30°06' W 093°19'0 0.0
2018-Jul-17 14:30N 30°06' W 093°19'0 0.0
2018-Jul-17 14:00N 30°06' W 093°19'0 0.0
2018-Jul-17 13:30N 30°06' W 093°19'0 0.1
2018-Jul-17 13:00N 30°06' W 093°19'0 0.0
2018-Jul-17 12:30N 30°06' W 093°19'0 0.0
2018-Jul-17 12:00N 30°06' W 093°19'0 0.0
2018-Jul-17 11:30N 30°06' W 093°19'0 0.0
2018-Jul-17 11:00N 30°06' W 093°19'0 0.0
2018-Jul-17 10:30N 30°06' W 093°19'0 0.0
2018-Jul-17 10:00N 30°06' W 093°19'0 0.0
2018-Jul-17 09:30N 30°06' W 093°19'0 0.0
2018-Jul-17 09:00N 30°06' W 093°19'0 0.0
2018-Jul-17 08:30N 30°06' W 093°19'0 0.0
2018-Jul-17 08:00N 30°06' W 093°19'0 0.0
2018-Jul-17 07:30N 30°06' W 093°19'0 0.0
2018-Jul-17 07:00N 30°06' W 093°19'0 0.0
2018-Jul-17 06:29N 30°06' W 093°19'0 0.0
2018-Jul-17 05:59N 30°06' W 093°19'0 0.0
2018-Jul-17 05:29N 30°06' W 093°19'0 0.0
2018-Jul-17 05:00N 30°06' W 093°19'0 0.0
2018-Jul-17 04:26N 30°06' W 093°19'0 0.0
2018-Jul-17 03:58N 30°06' W 093°19'0 0.0
2018-Jul-17 03:29N 30°06' W 093°19'0 0.0
2018-Jul-17 03:00N 30°06' W 093°19'0 0.0
2018-Jul-17 02:30N 30°06' W 093°19'0 0.0
2018-Jul-17 02:00N 30°06' W 093°19'1 1.7
2018-Jul-17 01:30N 30°05' W 093°20'2 3.1
2018-Jul-17 01:00N 30°04' W 093°21'1 2.6
2018-Jul-17 00:30N 30°04' W 093°22'2 2.4
2018-Jul-16 23:30N 30°04' W 093°25'1 1.5
2018-Jul-16 23:00N 30°04' W 093°26'0 0.1
2018-Jul-16 22:30N 30°04' W 093°26'0 0.0
2018-Jul-16 22:00N 30°04' W 093°26'0 0.0
2018-Jul-16 21:30N 30°04' W 093°26'0 0.0
2018-Jul-16 21:00N 30°04' W 093°26'0 0.0
2018-Jul-16 20:30N 30°04' W 093°26'0 0.0
2018-Jul-16 20:00N 30°04' W 093°26'0 0.0
2018-Jul-16 19:30N 30°04' W 093°26'0 0.0
2018-Jul-16 19:00N 30°04' W 093°26'0 0.0
2018-Jul-16 18:30N 30°04' W 093°26'0 0.0
2018-Jul-16 18:00N 30°04' W 093°26'0 0.0
2018-Jul-16 17:30N 30°04' W 093°26'0 0.4
2018-Jul-16 16:59N 30°04' W 093°26'0 0.0
2018-Jul-16 16:30N 30°04' W 093°26'0 0.0
2018-Jul-16 16:00N 30°04' W 093°26'0 0.1
2018-Jul-16 15:30N 30°04' W 093°26'0 0.0
2018-Jul-16 15:00N 30°04' W 093°26'0 0.0
2018-Jul-16 14:30N 30°04' W 093°26'0 0.0
2018-Jul-16 14:00N 30°04' W 093°26'0 0.5
2018-Jul-16 13:30N 30°04' W 093°26'1 1.1
2018-Jul-16 13:00N 30°04' W 093°27'0 0.6
2018-Jul-16 12:30N 30°04' W 093°27'1 1.4
2018-Jul-16 12:00N 30°04' W 093°28'0 0.1
2018-Jul-16 11:30N 30°04' W 093°28'0 0.0
2018-Jul-16 11:00N 30°04' W 093°28'0 0.0
2018-Jul-16 10:31N 30°04' W 093°28'0 0.0
2018-Jul-16 10:01N 30°04' W 093°28'0 0.0
2018-Jul-16 09:30N 30°04' W 093°28'0 0.0
2018-Jul-16 09:00N 30°04' W 093°28'0 0.0
2018-Jul-16 08:30N 30°04' W 093°28'0 0.0
2018-Jul-16 08:00N 30°04' W 093°28'0 0.0
2018-Jul-16 07:30N 30°04' W 093°28'0 0.0
2018-Jul-16 07:00N 30°04' W 093°28'0 0.0
2018-Jul-16 06:30N 30°04' W 093°28'0 0.0
2018-Jul-16 06:00N 30°04' W 093°28'0 0.0
2018-Jul-16 05:30N 30°04' W 093°28'0 0.0
2018-Jul-16 05:00N 30°04' W 093°28'0 0.0
2018-Jul-16 04:29N 30°04' W 093°28'0 0.1
2018-Jul-16 04:00N 30°04' W 093°28'0 0.0
2018-Jul-16 03:30N 30°04' W 093°28'0 0.1
2018-Jul-16 03:00N 30°04' W 093°28'0 0.0
2018-Jul-16 02:30N 30°04' W 093°28'0 0.0
2018-Jul-16 02:00N 30°04' W 093°28'0 0.0
2018-Jul-16 01:30N 30°04' W 093°28'0 0.0
2018-Jul-16 01:00N 30°04' W 093°28'0 0.0
2018-Jul-16 00:30N 30°04' W 093°28'0 0.1
2018-Jul-16 00:00N 30°04' W 093°28'0 0.2
2018-Jul-15 23:30N 30°04' W 093°28'0 0.6
2018-Jul-15 23:00N 30°04' W 093°29'0 0.4
2018-Jul-15 22:30N 30°04' W 093°29'0 0.3
2018-Jul-15 22:00N 30°04' W 093°29'1 2.1
2018-Jul-15 21:30N 30°04' W 093°30'2 4.2
2018-Jul-15 21:00N 30°04' W 093°33'0 0.4
2018-Jul-15 20:30N 30°04' W 093°33'0 0.0
2018-Jul-15 20:00N 30°04' W 093°33'0 0.0
2018-Jul-15 19:30N 30°04' W 093°33'0 0.4
2018-Jul-15 19:00N 30°04' W 093°33'2 3.3
2018-Jul-15 18:30N 30°04' W 093°35'0 0.9
2018-Jul-15 17:59N 30°04' W 093°36'1 1.9
2018-Jul-15 17:30N 30°04' W 093°37'1 2.3
2018-Jul-15 17:00N 30°04' W 093°38'0 0.3
2018-Jul-15 16:30N 30°04' W 093°38'0 0.0
2018-Jul-15 16:00N 30°04' W 093°38'0 0.0
2018-Jul-15 15:30N 30°04' W 093°38'0 0.1
2018-Jul-15 15:00N 30°04' W 093°38'0 0.0
2018-Jul-15 14:30N 30°04' W 093°38'0 0.1
2018-Jul-15 14:00N 30°04' W 093°38'0 0.0
2018-Jul-15 13:29N 30°04' W 093°38'0 0.0
2018-Jul-15 13:00N 30°04' W 093°38'0 0.1
2018-Jul-15 12:30N 30°04' W 093°38'0 0.2
2018-Jul-15 12:00N 30°04' W 093°38'0 0.1
2018-Jul-15 11:30N 30°04' W 093°38'0 0.1
2018-Jul-15 10:59N 30°04' W 093°38'0 0.0
2018-Jul-15 10:30N 30°04' W 093°38'0 0.0
2018-Jul-15 10:00N 30°04' W 093°38'0 0.0
2018-Jul-15 09:30N 30°04' W 093°38'0 0.1
2018-Jul-15 09:00N 30°04' W 093°38'1 1.7
2018-Jul-15 08:30N 30°04' W 093°39'2 3.3
2018-Jul-15 08:00N 30°04' W 093°41'2 4.3
2018-Jul-15 07:30N 30°03' W 093°44'2 4.4
2018-Jul-15 07:00N 30°01' W 093°45'2 4.7
2018-Jul-15 06:29N 29°59' W 093°47'2 4.8
2018-Jul-15 06:00N 29°59' W 093°50'2 4.4
2018-Jul-15 05:30N 29°57' W 093°52'2 4.3
2018-Jul-15 05:00N 29°55' W 093°53'2 3.7
2018-Jul-15 04:30N 29°54' W 093°54'2 4.0
2018-Jul-15 04:00N 29°52' W 093°56'2 3.3
2018-Jul-15 03:30N 29°51' W 093°57'2 3.9
2018-Jul-15 03:00N 29°49' W 093°58'2 4.6
2018-Jul-15 02:30N 29°48' W 094°00'3 5.1
2018-Jul-15 02:00N 29°46' W 094°02'2 4.9
2018-Jul-15 01:30N 29°45' W 094°05'2 4.8
2018-Jul-15 01:00N 29°43' W 094°07'2 4.6
2018-Jul-15 00:30N 29°42' W 094°09'2 4.3
2018-Jul-15 00:00N 29°41' W 094°11'2 4.4
2018-Jul-14 23:30N 29°40' W 094°13'2 4.4
2018-Jul-14 23:00N 29°39' W 094°16'2 4.4
2018-Jul-14 22:30N 29°38' W 094°18'2 4.4
2018-Jul-14 22:00N 29°37' W 094°20'2 4.5
2018-Jul-14 21:30N 29°36' W 094°22'2 3.5
2018-Jul-14 21:00N 29°36' W 094°24'2 3.6
2018-Jul-14 20:30N 29°34' W 094°25'20 3.9
2018-Jul-14 15:25N 29°24' W 094°45'2 4.6
2018-Jul-14 15:00N 29°23' W 094°46'3 3.5
2018-Jul-14 14:00N 29°25' W 094°50'2 4.8
2018-Jul-14 13:30N 29°27' W 094°51'3 4.8
2018-Jul-14 12:54N 29°30' W 094°52'2 4.9
2018-Jul-14 12:25N 29°32' W 094°54'2 4.5
2018-Jul-14 12:00N 29°33' W 094°55'3 5.1
2018-Jul-14 11:30N 29°35' W 094°56'3 5.2
2018-Jul-14 11:00N 29°38' W 094°58'3 5.5
2018-Jul-14 10:30N 29°40' W 094°59'3 5.5
2018-Jul-14 10:00N 29°42' W 095°01'3 5.6
2018-Jul-14 09:30N 29°44' W 095°03'3 1.6
2018-Jul-14 07:41N 29°46' W 095°06'0 0.1
2018-Jul-14 07:29N 29°46' W 095°06'0 0.2
2018-Jul-14 07:00N 29°46' W 095°06'1 0.2
2018-Jul-14 04:03N 29°45' W 095°06'0 6.4
2018-Jul-14 04:00N 29°46' W 095°05'0 0.5
2018-Jul-14 03:30N 29°46' W 095°05'1 1.3
2018-Jul-14 02:57N 29°46' W 095°05'3 6.2
2018-Jul-14 02:29N 29°44' W 095°02'3 5.6
2018-Jul-14 02:00N 29°42' W 094°60'3 6.3
2018-Jul-14 01:30N 29°39' W 094°58'3 6.9
2018-Jul-14 01:00N 29°36' W 094°57'3 7.0
2018-Jul-14 00:30N 29°33' W 094°55'3 6.1
2018-Jul-13 23:58N 29°30' W 094°52'6 6.8
2018-Jul-13 23:05N 29°25' W 094°50'1 6.7
2018-Jul-13 23:00N 29°24' W 094°49'3 5.5
2018-Jul-13 22:30N 29°22' W 094°47'2 4.3
2018-Jul-13 22:00N 29°24' W 094°45'3 5.4
2018-Jul-13 21:30N 29°25' W 094°43'15 5.7
2018-Jul-13 18:54N 29°33' W 094°28'3 5.7
2018-Jul-13 18:23N 29°34' W 094°25'2 5.2
2018-Jul-13 18:00N 29°36' W 094°24'3 5.5
2018-Jul-13 17:30N 29°37' W 094°21'3 5.9
2018-Jul-13 17:00N 29°38' W 094°18'3 5.9
2018-Jul-13 16:28N 29°40' W 094°15'3 5.7
2018-Jul-13 16:00N 29°41' W 094°12'3 5.5
2018-Jul-13 15:30N 29°42' W 094°09'2 5.0
2018-Jul-13 15:00N 29°43' W 094°07'6 6.0
2018-Jul-13 14:00N 29°47' W 094°02'3 6.1
2018-Jul-13 13:30N 29°49' W 093°59'2 4.2
2018-Jul-13 13:00N 29°50' W 093°57'2 4.5
2018-Jul-13 12:30N 29°52' W 093°56'3 4.9
2018-Jul-13 12:00N 29°54' W 093°54'2 4.0
2018-Jul-13 11:30N 29°56' W 093°52'0 0.5
2018-Jul-13 11:00N 29°56' W 093°52'0 0.0
2018-Jul-13 10:30N 29°56' W 093°52'1 1.2
2018-Jul-13 10:00N 29°57' W 093°52'3 5.3
2018-Jul-13 09:30N 29°59' W 093°50'3 5.8
2018-Jul-13 09:00N 29°60' W 093°47'3 5.0
2018-Jul-13 08:29N 30°01' W 093°45'2 5.1
2018-Jul-13 08:00N 30°03' W 093°43'3 5.3
2018-Jul-13 07:30N 30°04' W 093°40'3 5.3
2018-Jul-13 07:00N 30°04' W 093°37'2 4.5
2018-Jul-13 06:30N 30°04' W 093°34'2 4.4
2018-Jul-13 06:00N 30°04' W 093°32'2 4.0
2018-Jul-13 05:30N 30°04' W 093°29'2 4.1
2018-Jul-13 05:00N 30°04' W 093°27'2 4.2
2018-Jul-13 04:30N 30°04' W 093°25'2 3.9
2018-Jul-13 04:00N 30°04' W 093°22'1 1.5
2018-Jul-13 03:30N 30°04' W 093°21'1 1.4
2018-Jul-13 03:00N 30°04' W 093°21'1 1.7
2018-Jul-13 02:30N 30°05' W 093°20'1 2.6
2018-Jul-13 02:00N 30°06' W 093°19'2 3.0
2018-Jul-13 01:30N 30°05' W 093°18'0 0.5
2018-Jul-13 01:00N 30°05' W 093°17'0 0.0
2018-Jul-13 00:30N 30°05' W 093°17'1 1.5
2018-Jul-13 00:00N 30°05' W 093°17'0 0.0
2018-Jul-12 23:30N 30°05' W 093°17'1 1.2
2018-Jul-12 23:00N 30°04' W 093°16'1 1.6
2018-Jul-12 22:30N 30°03' W 093°16'0 0.2
2018-Jul-12 22:00N 30°04' W 093°16'0 0.0
2018-Jul-12 21:30N 30°04' W 093°16'0 0.0
2018-Jul-12 20:59N 30°04' W 093°16'0 0.0
2018-Jul-12 20:30N 30°04' W 093°16'0 0.0
2018-Jul-12 20:00N 30°04' W 093°16'0 0.0
2018-Jul-12 19:30N 30°04' W 093°16'0 0.0
2018-Jul-12 19:00N 30°04' W 093°16'0 0.0
2018-Jul-12 18:30N 30°04' W 093°16'0 0.0
2018-Jul-12 18:00N 30°04' W 093°16'0 0.0
2018-Jul-12 17:30N 30°04' W 093°16'0 0.0
2018-Jul-12 17:00N 30°04' W 093°16'0 0.0
2018-Jul-12 16:30N 30°04' W 093°16'0 0.0
2018-Jul-12 16:00N 30°04' W 093°16'0 0.0
2018-Jul-12 15:30N 30°04' W 093°16'0 0.0
2018-Jul-12 15:00N 30°04' W 093°16'0 0.0
2018-Jul-12 14:30N 30°04' W 093°16'0 0.0
2018-Jul-12 14:00N 30°04' W 093°16'  

Dump ship's entire track history